Time;durP1;ratioP1;P1;durP2;ratioP2;P2;SDS_P1;SDS_P2;PMS_P1;PMS_P2;Temp;Humidity;BMP_temperature;BMP_pressure;BME280_temperature;BME280_humidity;BME280_pressure;Samples;Min_cycle;Max_cycle;Signal;HPM_P1;HPM_P2
2023/04/06 00:01:35;;;;;;;10.60;7.30;;;;;;;1.87;97.38;98309.23;105645;1254;73873;-22
2023/04/06 00:04:04;;;;;;;8.80;7.10;;;;;;;1.73;98.16;98311.95;105583;1254;61862;-21
2023/04/06 00:06:33;;;;;;;9.50;6.00;;;;;;;1.58;99.17;98309.17;105634;1259;61647;-23
2023/04/06 00:09:01;;;;;;;7.50;5.40;;;;;;;1.83;98.80;98310.30;105700;1254;74560;-22
2023/04/06 00:11:28;;;;;;;6.60;5.20;;;;;;;1.99;97.87;98306.52;105722;1254;75848;-21
2023/04/06 00:13:57;;;;;;;8.10;6.60;;;;;;;1.86;97.47;98302.46;105695;1254;74100;-21
2023/04/06 00:16:24;;;;;;;6.20;4.90;;;;;;;1.63;99.09;98300.00;105701;1254;61235;-21
2023/04/06 00:18:52;;;;;;;6.80;5.80;;;;;;;1.88;98.52;98298.39;105682;1258;61799;-22
2023/04/06 00:21:20;;;;;;;6.90;5.60;;;;;;;2.14;97.10;98293.14;105606;1254;74533;-22
2023/04/06 00:23:47;;;;;;;7.20;5.20;;;;;;;1.95;96.68;98289.28;105648;1254;75843;-22
2023/04/06 00:26:14;;;;;;;7.90;5.80;;;;;;;1.86;97.30;98283.79;105624;1254;73610;-22
2023/04/06 00:28:44;;;;;;;6.00;4.40;;;;;;;1.83;97.63;98284.45;105618;1254;62701;-21
2023/04/06 00:31:11;;;;;;;9.00;5.20;;;;;;;2.02;97.13;98279.45;105537;1259;61410;-22
2023/04/06 00:33:39;;;;;;;6.50;5.10;;;;;;;2.05;96.60;98271.78;105583;1253;74618;-22
2023/04/06 00:36:06;;;;;;;6.80;5.40;;;;;;;1.84;97.27;98265.10;105641;1258;75593;-21
2023/04/06 00:38:34;;;;;;;5.20;4.30;;;;;;;1.79;98.19;98267.08;105703;1260;73541;-22
2023/04/06 00:41:03;;;;;;;6.10;5.30;;;;;;;2.04;97.55;98264.59;105639;1254;61597;-22
2023/04/06 00:43:31;;;;;;;6.60;5.00;;;;;;;2.14;96.77;98258.02;105339;1262;61758;-21
2023/04/06 00:45:59;;;;;;;7.70;6.00;;;;;;;1.98;97.10;98250.92;105627;1254;74542;-21
2023/04/06 00:48:30;;;;;;;8.90;5.20;;;;;;;1.86;98.18;98248.85;105643;1254;75558;-22
2023/04/06 00:50:58;;;;;;;6.20;5.30;;;;;;;2.06;97.78;98242.73;105651;1254;74086;-22
2023/04/06 00:53:25;;;;;;;7.60;6.40;;;;;;;2.12;97.27;98246.33;105567;1259;61669;-21
2023/04/06 00:55:53;;;;;;;8.10;5.40;;;;;;;2.05;97.76;98246.21;105682;1259;61847;-21
2023/04/06 00:58:21;;;;;;;8.10;6.00;;;;;;;2.05;97.72;98248.31;105593;1254;74722;-21
2023/04/06 01:00:52;;;;;;;7.10;5.30;;;;;;;2.02;98.21;98244.86;105576;1262;75445;-22
2023/04/06 01:03:22;;;;;;;7.10;5.80;;;;;;;2.34;97.04;98240.92;105569;1257;74364;-21
2023/04/06 01:05:55;;;;;;;9.30;6.50;;;;;;;2.07;97.35;98235.69;105610;1259;61896;-23
2023/04/06 01:08:25;;;;;;;8.70;6.70;;;;;;;1.98;98.40;98232.76;105265;1262;61744;-22
2023/04/06 01:10:56;;;;;;;6.80;5.40;;;;;;;2.03;98.68;98223.96;105521;1254;74565;-22
2023/04/06 01:13:28;;;;;;;7.00;5.40;;;;;;;2.27;97.75;98219.06;105620;1253;75935;-22
2023/04/06 01:15:59;;;;;;;8.90;6.40;;;;;;;2.24;97.74;98213.78;105543;1259;74086;-21
2023/04/06 01:18:53;;;;;;;8.40;6.10;;;;;;;2.09;98.03;98205.45;105411;1257;61977;-22
2023/04/06 01:21:23;;;;;;;8.90;5.70;;;;;;;2.13;98.25;98208.07;105639;1259;61860;-22
2023/04/06 01:24:09;;;;;;;6.20;5.00;;;;;;;2.45;97.10;98204.77;105659;1255;74818;-22
2023/04/06 01:26:50;;;;;;;7.30;5.60;;;;;;;2.28;96.97;98201.86;105628;1253;75652;-21
2023/04/06 01:29:17;;;;;;;7.90;5.70;;;;;;;2.20;97.85;98204.11;105531;1261;75100;-22
2023/04/06 01:31:44;;;;;;;6.40;4.80;;;;;;;2.18;98.45;98211.54;105676;1254;61348;-22
2023/04/06 01:34:12;;;;;;;6.90;5.30;;;;;;;2.32;98.19;98207.48;105652;1254;61681;-22
2023/04/06 01:36:39;;;;;;;7.60;5.40;;;;;;;2.39;98.25;98202.94;105532;1255;74511;-21
2023/04/06 01:39:19;;;;;;;7.40;5.60;;;;;;;2.52;96.79;98196.14;105478;1254;75315;-22
2023/04/06 01:41:47;;;;;;;6.90;5.30;;;;;;;2.28;97.72;98195.89;105668;1254;73904;-22
2023/04/06 01:44:16;;;;;;;5.50;4.80;;;;;;;2.37;98.09;98187.63;105543;1257;62073;-21
2023/04/06 01:46:44;;;;;;;6.40;5.10;;;;;;;2.40;97.89;98181.16;105227;1261;61620;-22
2023/04/06 01:49:12;;;;;;;7.30;5.60;;;;;;;2.42;97.72;98181.88;105501;1259;74605;-21
2023/04/06 01:51:42;;;;;;;8.70;5.80;;;;;;;2.31;98.03;98177.39;105739;1254;75484;-21
2023/04/06 01:54:11;;;;;;;5.60;4.20;;;;;;;2.31;98.24;98170.02;105609;1257;74273;-21
2023/04/06 01:56:52;;;;;;;6.90;4.80;;;;;;;2.46;97.88;98167.57;105584;1254;61788;-21
2023/04/06 01:59:28;;;;;;;7.60;5.70;;;;;;;2.50;97.67;98152.27;105628;1259;62046;-21
2023/04/06 02:01:56;;;;;;;6.70;5.10;;;;;;;2.40;97.87;98146.36;105806;1254;74550;-21
2023/04/06 02:04:25;;;;;;;5.50;4.30;;;;;;;2.27;99.00;98149.34;105582;1259;75917;-21
2023/04/06 02:07:03;;;;;;;10.30;6.00;;;;;;;2.61;98.06;98145.25;105498;1259;74423;-21
2023/04/06 02:09:30;;;;;;;9.10;5.70;;;;;;;2.70;97.69;98153.56;105691;1256;61041;-21
2023/04/06 02:11:57;;;;;;;8.60;6.10;;;;;;;2.61;97.28;98147.45;105628;1254;61731;-21
2023/04/06 02:14:25;;;;;;;8.70;6.00;;;;;;;2.28;99.38;98146.02;105658;1254;74732;-21
2023/04/06 02:16:53;;;;;;;7.60;5.70;;;;;;;2.51;99.46;98148.03;105720;1254;75982;-21
2023/04/06 02:19:22;;;;;;;13.70;6.30;;;;;;;2.62;98.93;98143.27;105679;1262;74007;-21
2023/04/06 02:21:56;;;;;;;13.10;7.80;;;;;;;2.57;99.00;98136.19;105663;1254;61873;-21
2023/04/06 02:24:23;;;;;;;9.50;6.80;;;;;;;2.56;98.81;98135.08;105873;1258;61946;-21
2023/04/06 02:26:51;;;;;;;17.60;11.20;;;;;;;2.47;99.91;98139.92;105911;1255;74528;-21
2023/04/06 02:29:18;;;;;;;13.00;8.70;;;;;;;2.85;98.94;98142.02;105661;1254;75746;-21
2023/04/06 02:31:47;;;;;;;10.20;6.50;;;;;;;2.72;98.25;98136.98;105718;1259;74133;-21
2023/04/06 02:34:17;;;;;;;15.70;8.00;;;;;;;2.58;99.29;98138.73;105830;1254;61789;-21
2023/04/06 02:36:47;;;;;;;10.10;7.30;;;;;;;2.54;99.54;98134.33;105660;1254;61713;-21
2023/04/06 02:39:14;;;;;;;14.10;8.50;;;;;;;2.63;99.70;98132.05;105693;1259;73249;-21
2023/04/06 02:41:42;;;;;;;11.00;7.60;;;;;;;2.70;99.29;98138.29;105689;1254;75861;-21
2023/04/06 02:44:10;;;;;;;12.10;7.40;;;;;;;2.63;99.60;98130.36;105685;1256;74336;-21
2023/04/06 02:46:40;;;;;;;14.30;12.50;;;;;;;2.64;99.76;98130.95;105848;1259;63358;-20
2023/04/06 02:49:07;;;;;;;10.80;8.20;;;;;;;2.66;99.94;98138.56;105696;1260;61902;-21
2023/04/06 02:51:35;;;;;;;13.50;9.30;;;;;;;2.86;99.35;98133.36;105714;1259;75464;-20
2023/04/06 02:54:26;;;;;;;29.40;17.80;;;;;;;2.69;99.48;98134.27;105746;1260;75996;-21
2023/04/06 02:56:53;;;;;;;15.90;10.40;;;;;;;2.65;99.89;98125.27;105693;1253;74188;-20
2023/04/06 02:59:20;;;;;;;19.50;14.10;;;;;;;2.87;99.29;98126.60;105678;1259;61618;-21
2023/04/06 03:01:59;;;;;;;11.80;8.00;;;;;;;2.92;99.16;98117.37;105643;1258;61768;-20
2023/04/06 03:04:26;;;;;;;24.70;12.40;;;;;;;2.82;99.28;98128.27;105897;1254;75384;-21
2023/04/06 03:06:55;;;;;;;14.40;10.00;;;;;;;2.74;99.69;98123.66;105854;1258;75789;-21
2023/04/06 03:09:36;;;;;;;19.00;10.20;;;;;;;2.87;99.90;98127.48;105673;1254;74268;-21
2023/04/06 03:12:03;;;;;;;12.40;8.80;;;;;;;3.08;99.14;98124.21;105560;1259;61917;-21
2023/04/06 03:14:33;;;;;;;16.00;10.60;;;;;;;3.09;98.43;98126.20;105675;1260;61669;-21
2023/04/06 03:17:01;;;;;;;11.10;8.10;;;;;;;2.86;99.28;98128.23;105898;1259;75314;-21
2023/04/06 03:19:29;;;;;;;12.30;8.10;;;;;;;2.82;100.00;98124.70;105904;1257;74991;-21
2023/04/06 03:21:58;;;;;;;8.50;6.80;;;;;;;3.14;99.76;98132.59;105659;1254;74174;-21
2023/04/06 03:24:25;;;;;;;13.80;8.90;;;;;;;3.11;99.16;98125.92;105839;1257;61983;-21
2023/04/06 03:26:53;;;;;;;10.30;7.60;;;;;;;3.01;99.58;98122.26;105850;1259;61954;-21
2023/04/06 03:29:23;;;;;;;19.30;12.50;;;;;;;2.99;100.00;98128.44;105816;1254;75006;-20
2023/04/06 03:31:51;;;;;;;12.60;8.90;;;;;;;3.24;99.48;98125.44;105690;1263;75915;-21
2023/04/06 03:34:32;;;;;;;10.20;7.20;;;;;;;3.15;99.44;98125.86;105724;1257;72949;-21
2023/04/06 03:36:59;;;;;;;10.80;8.20;;;;;;;3.19;99.55;98126.41;105760;1254;61741;-21
2023/04/06 03:39:40;;;;;;;16.20;11.10;;;;;;;3.08;100.00;98122.17;105504;1254;62280;-20
2023/04/06 03:42:08;;;;;;;8.30;6.50;;;;;;;3.28;99.86;98122.56;105398;1254;75145;-21
2023/04/06 03:44:41;;;;;;;13.60;9.70;;;;;;;3.36;99.29;98116.89;105638;1260;75472;-20
2023/04/06 03:47:08;;;;;;;17.50;11.40;;;;;;;3.23;99.80;98126.88;105618;1257;74135;-21
2023/04/06 03:49:39;;;;;;;27.10;16.60;;;;;;;3.36;99.54;98124.61;105661;1263;63384;-21
2023/04/06 03:52:08;;;;;;;96.70;49.00;;;;;;;3.56;98.72;98127.95;105707;1259;61664;-21
2023/04/06 03:54:36;;;;;;;31.90;17.90;;;;;;;3.36;99.17;98125.30;105731;1259;75483;-20
2023/04/06 03:57:04;;;;;;;25.30;15.40;;;;;;;3.18;99.96;98118.76;105571;1260;75720;-20
2023/04/06 03:59:31;;;;;;;18.60;12.30;;;;;;;3.32;100.00;98129.37;105625;1262;74026;-22
2023/04/06 04:01:59;;;;;;;17.00;11.20;;;;;;;3.46;99.89;98121.27;105845;1257;61954;-22
2023/04/06 04:04:26;;;;;;;17.30;11.30;;;;;;;3.48;99.40;98116.13;105873;1257;61753;-22
2023/04/06 04:06:54;;;;;;;25.40;15.10;;;;;;;3.45;99.34;98112.21;105700;1259;75198;-22
2023/04/06 04:09:21;;;;;;;33.00;18.40;;;;;;;3.34;99.73;98114.11;105836;1254;75525;-21
2023/04/06 04:11:50;;;;;;;52.20;31.10;;;;;;;3.50;99.94;98121.48;105666;1254;73178;-21
2023/04/06 04:14:18;;;;;;;13.30;9.90;;;;;;;3.60;99.55;98110.66;105548;1255;61877;-21
2023/04/06 04:16:45;;;;;;;22.30;13.30;;;;;;;3.59;99.22;98101.12;105609;1259;61834;-21
2023/04/06 04:19:12;;;;;;;69.00;36.50;;;;;;;3.46;99.66;98115.39;105676;1259;75245;-21
2023/04/06 04:21:47;;;;;;;25.10;15.00;;;;;;;3.53;100.00;98118.89;105835;1260;75669;-21
2023/04/06 04:24:17;;;;;;;32.40;20.30;;;;;;;3.67;99.95;98115.88;105670;1261;73534;-21
2023/04/06 04:26:46;;;;;;;31.60;17.90;;;;;;;3.83;99.12;98110.84;105834;1260;61084;-21
2023/04/06 04:29:15;;;;;;;47.50;27.10;;;;;;;3.59;99.94;98113.83;105711;1260;61635;-21
2023/04/06 04:31:43;;;;;;;56.30;30.80;;;;;;;3.65;100.00;98110.35;105818;1258;75181;-21
2023/04/06 04:34:15;;;;;;;63.90;35.50;;;;;;;3.74;99.99;98111.45;105673;1262;75579;-21
2023/04/06 04:36:47;;;;;;;25.80;15.20;;;;;;;3.69;100.00;98104.92;105807;1257;74226;-21
2023/04/06 04:39:20;;;;;;;26.40;16.90;;;;;;;3.71;100.00;98102.92;105705;1255;61685;-21
2023/04/06 04:41:53;;;;;;;22.10;13.20;;;;;;;3.74;100.00;98101.15;105859;1256;61942;-21
2023/04/06 04:44:21;;;;;;;18.90;12.00;;;;;;;4.07;99.18;98099.53;105708;1259;74349;-21
2023/04/06 04:46:49;;;;;;;12.80;8.50;;;;;;;3.97;99.05;98095.27;105696;1259;74859;-21
2023/04/06 04:49:20;;;;;;;48.70;26.90;;;;;;;3.90;99.55;98102.96;105651;1253;74139;-21
2023/04/06 04:51:52;;;;;;;25.30;16.30;;;;;;;3.84;100.00;98103.20;105709;1257;63507;-21
2023/04/06 04:54:26;;;;;;;12.40;8.30;;;;;;;3.98;100.00;98094.52;105601;1261;61735;-21
2023/04/06 04:56:54;;;;;;;49.20;25.80;;;;;;;4.22;99.06;98102.29;105674;1260;75382;-21
2023/04/06 04:59:26;;;;;;;36.10;18.40;;;;;;;4.02;99.41;98097.02;105784;1259;75555;-21
2023/04/06 05:02:01;;;;;;;24.00;14.90;;;;;;;3.96;99.85;98092.91;105859;1255;74194;-21
2023/04/06 05:04:36;;;;;;;23.80;12.60;;;;;;;4.09;99.90;98089.67;105824;1259;61973;-21
2023/04/06 05:07:05;;;;;;;63.10;29.80;;;;;;;4.19;99.51;98092.07;105846;1258;61662;-21
2023/04/06 05:09:33;;;;;;;23.00;15.00;;;;;;;4.28;98.54;98082.17;105680;1254;75313;-21
2023/04/06 05:12:04;;;;;;;35.80;17.50;;;;;;;4.13;99.57;98082.83;105665;1261;75957;-22
2023/04/06 05:14:36;;;;;;;39.60;19.90;;;;;;;4.35;99.26;98075.14;105670;1258;74203;-21
2023/04/06 05:17:09;;;;;;;25.10;16.00;;;;;;;4.40;98.35;98074.82;105804;1257;61712;-21
2023/04/06 05:19:37;;;;;;;27.70;14.50;;;;;;;4.32;99.18;98073.11;105659;1260;61080;-21
2023/04/06 05:22:04;;;;;;;29.20;17.00;;;;;;;4.24;99.72;98074.36;105888;1257;75533;-20
2023/04/06 05:24:36;;;;;;;111.40;79.60;;;;;;;4.40;99.76;98081.69;105589;1263;75487;-20
2023/04/06 05:27:06;;;;;;;75.10;54.60;;;;;;;4.53;99.00;98076.61;105700;1260;74099;-20
2023/04/06 05:29:33;;;;;;;35.70;23.10;;;;;;;4.39;99.23;98071.21;105517;1258;61709;-21
2023/04/06 05:32:06;;;;;;;26.40;18.80;;;;;;;4.29;100.00;98073.48;105415;1255;61768;-21
2023/04/06 05:34:35;;;;;;;32.30;23.40;;;;;;;4.42;100.00;98074.15;105187;1261;74389;-20
2023/04/06 05:37:03;;;;;;;27.20;20.70;;;;;;;4.60;99.41;98072.17;105444;1267;76106;-20
2023/04/06 05:39:30;;;;;;;37.80;26.10;;;;;;;4.58;99.46;98065.60;105444;1260;74087;-21
2023/04/06 05:41:57;;;;;;;57.40;33.30;;;;;;;4.47;99.94;98066.39;105457;1254;61921;-21
2023/04/06 05:44:38;;;;;;;32.20;22.90;;;;;;;4.59;100.00;98070.15;105526;1258;61645;-21
2023/04/06 05:47:08;;;;;;;20.20;15.60;;;;;;;4.81;99.33;98062.89;105682;1259;74464;-21
2023/04/06 05:49:37;;;;;;;55.90;31.40;;;;;;;4.77;98.92;98063.98;105670;1260;75906;-22
2023/04/06 05:52:08;;;;;;;115.40;62.60;;;;;;;4.74;99.35;98066.49;105683;1259;73008;-21
2023/04/06 05:54:36;;;;;;;65.90;37.30;;;;;;;4.75;99.31;98064.37;105538;1260;63335;-21
2023/04/06 05:57:03;;;;;;;98.80;52.10;;;;;;;5.02;98.87;98062.54;105699;1259;61090;-22
2023/04/06 05:59:31;;;;;;;93.90;51.00;;;;;;;5.02;98.15;98064.99;105652;1259;75333;-22
2023/04/06 06:02:00;;;;;;;112.00;65.30;;;;;;;5.16;97.93;98066.34;105525;1261;75900;-22
2023/04/06 06:04:30;;;;;;;121.10;65.20;;;;;;;5.03;98.27;98068.81;105363;1259;72545;-22
2023/04/06 06:06:58;;;;;;;48.40;28.80;;;;;;;4.98;98.61;98066.33;105601;1261;63645;-23
2023/04/06 06:09:32;;;;;;;68.40;43.80;;;;;;;5.24;98.04;98063.38;105619;1260;61704;-22
2023/04/06 06:12:10;;;;;;;42.20;29.70;;;;;;;5.17;97.81;98060.73;105513;1259;75331;-22
2023/04/06 06:14:41;;;;;;;48.00;33.70;;;;;;;5.16;97.95;98061.04;105403;1259;75789;-22
2023/04/06 06:17:08;;;;;;;32.40;20.70;;;;;;;5.13;98.75;98059.33;105544;1261;73996;-21
2023/04/06 06:19:39;;;;;;;58.10;32.00;;;;;;;5.28;98.47;98067.33;105563;1254;61915;-20
2023/04/06 06:22:07;;;;;;;31.30;20.10;;;;;;;5.41;97.58;98070.30;105471;1259;61887;-21
2023/04/06 06:24:37;;;;;;;45.80;28.40;;;;;;;5.20;99.02;98072.11;105530;1259;75340;-21
2023/04/06 06:27:04;;;;;;;56.00;40.00;;;;;;;5.13;99.50;98070.05;105435;1260;75902;-21
2023/04/06 06:29:33;;;;;;;44.20;30.10;;;;;;;5.26;99.69;98070.05;105539;1254;74253;-21
2023/04/06 06:32:00;;;;;;;51.70;30.40;;;;;;;5.43;98.50;98071.41;105456;1260;61060;-22
2023/04/06 06:34:29;;;;;;;51.10;32.20;;;;;;;5.43;98.41;98075.55;105371;1260;61490;-22
2023/04/06 06:36:58;;;;;;;48.40;25.10;;;;;;;5.53;97.99;98082.83;105518;1262;74341;-22
2023/04/06 06:39:25;;;;;;;46.00;25.60;;;;;;;5.50;98.24;98083.79;105415;1259;75880;-21
2023/04/06 06:41:54;;;;;;;41.30;25.50;;;;;;;5.68;97.50;98076.91;105309;1268;73114;-21
2023/04/06 06:44:23;;;;;;;37.80;24.90;;;;;;;5.71;97.13;98082.33;105569;1255;61851;-21
2023/04/06 06:46:54;;;;;;;26.70;18.60;;;;;;;5.60;97.67;98070.29;105610;1269;61216;-21
2023/04/06 06:49:21;;;;;;;31.60;22.00;;;;;;;5.50;98.83;98073.98;105441;1259;75436;-21
2023/04/06 06:51:48;;;;;;;79.50;49.70;;;;;;;5.62;98.87;98069.12;105451;1259;75779;-21
2023/04/06 06:54:16;;;;;;;60.80;35.60;;;;;;;5.68;98.58;98064.48;105482;1255;72845;-21
2023/04/06 06:56:43;;;;;;;40.80;27.10;;;;;;;5.64;98.93;98067.08;105499;1255;61720;-21
2023/04/06 06:59:11;;;;;;;50.00;36.10;;;;;;;5.49;99.86;98060.95;105458;1260;61916;-21
2023/04/06 07:01:39;;;;;;;37.40;24.60;;;;;;;5.54;100.00;98062.45;105456;1254;74473;-21
2023/04/06 07:04:08;;;;;;;46.90;27.80;;;;;;;5.83;99.71;98058.23;105494;1259;75584;-21
2023/04/06 07:06:39;;;;;;;45.80;27.90;;;;;;;6.00;98.77;98068.60;105621;1260;74499;-20
2023/04/06 07:09:06;;;;;;;27.80;17.40;;;;;;;5.70;99.62;98064.73;105618;1254;61662;-21
2023/04/06 07:11:34;;;;;;;28.70;18.10;;;;;;;5.88;100.00;98075.06;105567;1261;61857;-21
2023/04/06 07:14:03;;;;;;;20.50;13.00;;;;;;;6.29;98.89;98073.80;105581;1254;75290;-21
2023/04/06 07:16:31;;;;;;;22.70;15.10;;;;;;;6.15;98.17;98073.38;105628;1261;75673;-21
2023/04/06 07:18:58;;;;;;;29.20;18.90;;;;;;;6.30;97.46;98077.02;105534;1261;73997;-21
2023/04/06 07:21:26;;;;;;;39.10;22.20;;;;;;;6.38;97.40;98075.49;105480;1258;62359;-24
2023/04/06 07:23:54;;;;;;;23.70;15.00;;;;;;;6.59;96.44;98079.52;105487;1258;61589;-23
2023/04/06 07:26:21;;;;;;;18.40;11.90;;;;;;;6.77;94.79;98081.34;105264;1254;75386;-22
2023/04/06 07:28:53;;;;;;;40.80;26.20;;;;;;;6.65;95.30;98081.44;105465;1258;75603;-22
2023/04/06 07:31:22;;;;;;;29.20;17.60;;;;;;;6.57;96.18;98082.79;105505;1259;74225;-22
2023/04/06 07:33:50;;;;;;;22.90;13.20;;;;;;;6.50;96.44;98088.64;105392;1259;63154;-22
2023/04/06 07:36:20;;;;;;;45.90;25.30;;;;;;;6.91;95.33;98089.03;105480;1255;61109;-22
2023/04/06 07:38:48;;;;;;;40.40;22.40;;;;;;;6.92;94.47;98089.42;105388;1263;75380;-22
2023/04/06 07:41:17;;;;;;;19.80;11.60;;;;;;;7.24;93.48;98094.95;105514;1267;75240;-22
2023/04/06 07:43:44;;;;;;;49.60;28.00;;;;;;;6.74;94.52;98088.00;105436;1257;74018;-22
2023/04/06 07:46:12;;;;;;;18.40;10.80;;;;;;;6.90;95.36;98091.02;105501;1254;63562;-22
2023/04/06 07:48:42;;;;;;;21.60;14.10;;;;;;;7.12;93.59;98089.23;105375;1260;61682;-22
2023/04/06 07:51:13;;;;;;;69.00;42.00;;;;;;;6.91;95.03;98085.70;105443;1254;75234;-23
2023/04/06 07:53:41;;;;;;;22.60;15.10;;;;;;;7.06;94.64;98089.71;105418;1259;75902;-22
2023/04/06 07:56:08;;;;;;;14.20;9.20;;;;;;;6.85;95.06;98088.61;105468;1260;74403;-22
2023/04/06 07:58:36;;;;;;;16.60;11.90;;;;;;;7.41;94.14;98091.52;105554;1255;61664;-22
2023/04/06 08:01:04;;;;;;;23.90;15.40;;;;;;;7.63;91.49;98085.48;105482;1255;61890;-22
2023/04/06 08:03:35;;;;;;;15.70;10.70;;;;;;;7.54;91.55;98087.95;105427;1260;74482;-22
2023/04/06 08:06:03;;;;;;;24.40;16.40;;;;;;;7.33;92.58;98084.77;105265;1257;75632;-23
2023/04/06 08:08:32;;;;;;;29.20;17.90;;;;;;;7.34;93.68;98081.86;105181;1263;74473;-22
2023/04/06 08:10:59;;;;;;;21.20;12.90;;;;;;;7.51;92.44;98084.75;105422;1254;61888;-21
2023/04/06 08:13:29;;;;;;;16.70;10.10;;;;;;;7.73;91.11;98078.10;105477;1260;61578;-22
2023/04/06 08:16:00;;;;;;;26.00;15.10;;;;;;;7.70;91.34;98076.78;105709;1254;75277;-22
2023/04/06 08:18:29;;;;;;;20.20;12.50;;;;;;;7.55;91.46;98079.28;105690;1259;75881;-21
2023/04/06 08:20:57;;;;;;;22.60;16.60;;;;;;;7.34;92.98;98078.27;105499;1255;74204;-21
2023/04/06 08:23:25;;;;;;;45.90;28.80;;;;;;;7.56;92.76;98077.78;105522;1258;61862;-22
2023/04/06 08:25:54;;;;;;;21.50;13.90;;;;;;;7.65;92.11;98079.44;105643;1259;61786;-22
2023/04/06 08:28:21;;;;;;;39.90;24.80;;;;;;;7.44;93.18;98080.68;105534;1259;75389;-22
2023/04/06 08:30:48;;;;;;;28.70;18.10;;;;;;;7.42;93.78;98078.47;105471;1260;75714;-22
2023/04/06 08:33:16;;;;;;;21.80;15.10;;;;;;;7.24;94.65;98072.37;105476;1259;74650;-22
2023/04/06 08:35:43;;;;;;;40.60;25.50;;;;;;;7.65;93.97;98075.80;105478;1254;61870;-22
2023/04/06 08:38:11;;;;;;;26.50;18.90;;;;;;;7.89;92.12;98073.63;105453;1254;61493;-22
2023/04/06 08:40:39;;;;;;;29.70;20.10;;;;;;;7.80;92.31;98074.10;105508;1254;75442;-22
2023/04/06 08:43:09;;;;;;;33.40;22.40;;;;;;;7.83;92.20;98072.47;105334;1255;75718;-22
2023/04/06 08:45:38;;;;;;;27.00;18.60;;;;;;;7.79;92.80;98074.36;105256;1254;72594;-22
2023/04/06 08:48:06;;;;;;;38.10;28.00;;;;;;;7.67;93.46;98076.20;105428;1260;61173;-22
2023/04/06 08:50:35;;;;;;;24.80;15.60;;;;;;;8.30;91.33;98074.98;105605;1260;61745;-24
2023/04/06 08:53:02;;;;;;;25.20;16.10;;;;;;;8.19;90.41;98077.63;105538;1254;75263;-23
2023/04/06 08:55:30;;;;;;;40.40;27.10;;;;;;;7.95;91.55;98077.08;105516;1254;75878;-23
2023/04/06 09:05:39;;;;;;;32.30;18.40;;;;;;;7.81;93.19;98074.88;102623;1294;599989;-23
2023/04/06 09:08:08;;;;;;;21.70;13.70;;;;;;;7.73;94.47;98078.30;104851;1267;61675;-24
2023/04/06 09:10:40;;;;;;;17.70;12.00;;;;;;;7.70;94.46;98074.75;104900;1267;60999;-22
2023/04/06 09:13:09;;;;;;;34.40;20.70;;;;;;;7.84;94.18;98071.86;104772;1266;73788;-22
2023/04/06 09:15:39;;;;;;;19.20;12.10;;;;;;;7.99;93.58;98075.02;104864;1267;76077;-23
2023/04/06 09:18:08;;;;;;;63.60;40.40;;;;;;;8.08;93.29;98078.76;106824;1269;2301182;-22
2023/04/06 09:20:37;;;;;;;34.00;19.40;;;;;;;7.82;94.44;98071.80;108678;1266;61371;-22
2023/04/06 09:23:05;;;;;;;23.50;14.00;;;;;;;7.67;95.63;98069.48;108777;1263;60031;-22
2023/04/06 09:25:33;;;;;;;41.00;25.50;;;;;;;7.84;95.73;98069.36;108795;1264;73103;-22
2023/04/06 09:28:03;;;;;;;16.90;11.20;;;;;;;8.28;93.18;98078.56;108781;1264;73348;-22
2023/04/06 09:30:32;;;;;;;12.70;8.90;;;;;;;7.97;93.98;98079.89;108768;1264;73445;-22
2023/04/06 09:33:03;;;;;;;12.90;9.20;;;;;;;7.86;94.57;98082.38;108655;1264;60002;-23
2023/04/06 09:35:32;;;;;;;14.60;9.50;;;;;;;7.74;95.89;98081.44;108733;1264;59180;-22
2023/04/06 09:38:10;;;;;;;12.20;9.20;;;;;;;8.04;94.90;98089.82;108729;1264;73168;-21
2023/04/06 09:40:51;;;;;;;18.80;12.40;;;;;;;8.22;93.94;98088.61;108626;1264;75047;-22
2023/04/06 09:43:26;;;;;;;11.70;8.90;;;;;;;8.32;92.91;98092.06;108717;1264;73549;-21
2023/04/06 09:45:55;;;;;;;11.00;7.80;;;;;;;7.92;94.88;98094.52;108679;1264;61005;-21
2023/04/06 09:48:25;;;;;;;13.10;8.70;;;;;;;8.69;93.57;98100.51;108711;1264;61267;-21
2023/04/06 09:50:59;;;;;;;9.50;7.20;;;;;;;8.72;91.24;98098.52;108728;1264;74043;-21
2023/04/06 09:53:27;;;;;;;13.00;8.60;;;;;;;8.73;90.44;98094.99;108701;1264;74653;-22
2023/04/06 09:55:57;;;;;;;14.10;9.10;;;;;;;8.40;91.52;98098.34;108764;1264;73571;-22
2023/04/06 09:58:26;;;;;;;14.80;9.20;;;;;;;8.31;92.83;98096.45;108671;1266;62123;-21
2023/04/06 10:00:54;;;;;;;11.40;7.60;;;;;;;8.47;92.26;98092.17;108706;1264;60343;-21
2023/04/06 10:03:45;;;;;;;17.30;10.00;;;;;;;8.91;89.64;98092.17;108751;1264;72651;-22
2023/04/06 10:06:14;;;;;;;19.20;12.00;;;;;;;8.37;91.64;98088.77;108741;1264;74384;-22
2023/04/06 10:08:43;;;;;;;14.90;10.90;;;;;;;8.57;91.42;98084.07;108709;1264;73635;-22
2023/04/06 10:11:11;;;;;;;24.20;16.20;;;;;;;8.27;92.76;98084.87;108660;1264;61489;-21
2023/04/06 10:13:41;;;;;;;9.50;7.50;;;;;;;8.46;92.21;98090.89;108776;1265;60334;-22
2023/04/06 10:16:10;;;;;;;17.30;10.60;;;;;;;8.68;91.58;98092.95;108757;1265;73296;-22
2023/04/06 10:18:45;;;;;;;;;;;;;;;8.89;89.97;98095.77;108693;1265;74909;-22
2023/04/06 10:21:16;;;;;;;19.80;14.10;;;;;;;8.68;90.78;98093.98;108540;1266;73772;-22
2023/04/06 10:24:01;;;;;;;20.60;12.70;;;;;;;8.90;90.12;98099.71;108500;1265;61438;-22
2023/04/06 10:26:31;;;;;;;20.40;13.10;;;;;;;8.78;90.26;98102.95;108608;1264;61009;-22
2023/04/06 10:29:03;;;;;;;23.00;16.20;;;;;;;9.37;88.05;98101.52;108859;1261;72713;-22
2023/04/06 10:31:31;;;;;;;20.50;12.90;;;;;;;9.11;87.96;98100.40;108731;1262;75301;-23
2023/04/06 10:34:01;;;;;;;20.30;12.10;;;;;;;9.01;88.95;98102.52;108914;1262;71583;-22
2023/04/06 10:36:33;;;;;;;20.30;11.00;;;;;;;8.86;89.87;98103.33;108777;1261;59015;-22
2023/04/06 10:39:03;;;;;;;9.40;6.60;;;;;;;8.87;89.54;98105.98;108858;1262;60492;-22
2023/04/06 10:41:42;;;;;;;13.00;8.40;;;;;;;9.09;88.36;98105.73;108741;1262;73996;-22
2023/04/06 10:44:25;;;;;;;15.90;10.10;;;;;;;9.55;86.88;98107.66;108860;1262;74090;-22
2023/04/06 10:47:00;;;;;;;20.80;13.60;;;;;;;9.36;86.95;98101.44;108788;1263;73578;-21
2023/04/06 10:49:29;;;;;;;14.40;9.90;;;;;;;9.03;88.84;98100.80;108770;1263;60214;-21
2023/04/06 10:51:58;;;;;;;17.70;10.90;;;;;;;8.73;90.98;98099.80;108909;1263;60256;-21
2023/04/06 10:54:26;;;;;;;12.80;8.60;;;;;;;8.53;92.55;98101.34;108825;1262;72806;-21
2023/04/06 10:56:56;;;;;;;11.60;8.60;;;;;;;8.80;92.04;98108.34;108878;1262;75244;-21
2023/04/06 10:59:25;;;;;;;14.10;9.20;;;;;;;9.00;91.13;98111.42;108896;1263;73343;-20
2023/04/06 11:01:55;;;;;;;14.90;9.60;;;;;;;8.97;90.77;98107.85;108904;1262;60351;-21
2023/04/06 11:04:24;;;;;;;16.90;11.00;;;;;;;8.75;91.86;98112.29;108885;1263;61193;-20
2023/04/06 11:06:54;;;;;;;15.60;7.80;;;;;;;8.78;92.53;98113.26;108719;1262;73972;-20
2023/04/06 11:09:27;;;;;;;21.90;11.60;;;;;;;9.09;91.50;98113.91;108935;1262;75249;-20
2023/04/06 11:11:56;;;;;;;16.10;11.10;;;;;;;9.46;89.33;98111.43;108779;1262;73603;-20
2023/04/06 11:14:26;;;;;;;21.10;13.80;;;;;;;9.25;90.01;98113.01;109093;1257;61201;-20
2023/04/06 11:16:55;;;;;;;47.60;27.30;;;;;;;8.94;91.57;98111.24;109112;1257;60258;-20
2023/04/06 11:19:23;;;;;;;18.10;12.60;;;;;;;8.58;93.17;98109.06;109098;1257;74066;-20
2023/04/06 11:21:52;;;;;;;18.90;11.70;;;;;;;8.95;93.26;98113.90;109112;1257;75227;-20
2023/04/06 11:24:22;;;;;;;15.00;10.90;;;;;;;9.40;91.00;98114.59;109073;1257;73659;-20
2023/04/06 11:26:57;;;;;;;19.00;13.60;;;;;;;9.26;90.17;98115.17;108981;1258;59003;-20
2023/04/06 11:29:27;;;;;;;30.10;19.00;;;;;;;8.74;92.61;98112.52;109031;1257;60288;-20
2023/04/06 11:32:03;;;;;;;25.20;15.60;;;;;;;8.89;93.63;98119.20;108995;1258;74230;-21
2023/04/06 11:34:38;;;;;;;22.00;14.40;;;;;;;9.01;92.90;98118.59;108930;1257;74042;-21
2023/04/06 11:37:09;;;;;;;35.50;23.20;;;;;;;9.25;92.00;98118.05;109075;1259;72748;-21
2023/04/06 11:39:50;;;;;;;61.70;35.80;;;;;;;9.32;91.00;98118.08;108983;1257;60388;-21
2023/04/06 11:42:29;;;;;;;75.70;42.90;;;;;;;8.96;93.26;98116.98;109102;1258;61189;-21